Time;durP1;ratioP1;P1;durP2;ratioP2;P2;SDS_P1;SDS_P2;PMS_P1;PMS_P2;Temp;Humidity;BMP_temperature;BMP_pressure;BME280_temperature;BME280_humidity;BME280_pressure;Samples;Min_cycle;Max_cycle;Signal;HPM_P1;HPM_P2
2021/06/24 00:00:48;;;;;;;4.30;1.90;;;11.20;99.90;;;;;;4994502;28;20235;-85
2021/06/24 00:03:14;;;;;;;4.13;1.70;;;11.10;99.90;;;;;;5010642;28;20240;-84
2021/06/24 00:05:42;;;;;;;1.87;1.77;;;11.10;99.90;;;;;;5010949;28;20190;-84
2021/06/24 00:08:11;;;;;;;2.67;1.80;;;11.10;99.90;;;;;;5011688;28;20198;-85
2021/06/24 00:10:40;;;;;;;1.33;1.23;;;11.10;99.90;;;;;;5012641;28;20280;-85
2021/06/24 00:13:06;;;;;;;3.40;1.90;;;11.10;99.90;;;;;;5032935;28;20257;-84
2021/06/24 00:15:33;;;;;;;5.27;2.00;;;11.10;99.90;;;;;;5030814;28;20781;-87
2021/06/24 00:17:59;;;;;;;1.77;1.67;;;11.10;99.90;;;;;;5015244;28;20219;-86
2021/06/24 00:20:25;;;;;;;1.77;1.67;;;11.10;99.90;;;;;;5017633;28;20753;-85
2021/06/24 00:22:51;;;;;;;2.07;1.80;;;11.10;99.90;;;;;;4983006;28;20682;-84
2021/06/24 00:25:17;;;;;;;2.00;1.60;;;11.10;99.90;;;;;;5016602;28;20219;-85
2021/06/24 00:27:43;;;;;;;2.70;2.30;;;11.10;99.90;;;;;;5016928;28;20579;-87
2021/06/24 00:30:10;;;;;;;1.90;1.60;;;11.20;99.90;;;;;;5014452;28;20219;-83
2021/06/24 00:32:36;;;;;;;4.90;2.27;;;11.10;99.90;;;;;;5014752;28;20232;-83
2021/06/24 00:35:03;;;;;;;2.80;2.30;;;11.20;99.90;;;;;;5015287;28;20272;-83
2021/06/24 00:37:29;;;;;;;1.80;1.53;;;11.10;99.90;;;;;;5014564;28;20257;-85
2021/06/24 00:39:56;;;;;;;4.93;1.93;;;11.20;99.90;;;;;;5030697;28;20313;-83
2021/06/24 00:42:23;;;;;;;1.53;1.20;;;11.20;99.90;;;;;;5016261;28;20238;-83
2021/06/24 00:44:49;;;;;;;2.40;2.00;;;11.30;99.90;;;;;;4981711;28;20731;-86
2021/06/24 00:47:15;;;;;;;1.63;1.50;;;11.40;99.90;;;;;;5016911;28;20187;-85
2021/06/24 00:49:41;;;;;;;2.53;1.77;;;11.40;99.90;;;;;;5014853;28;20288;-84
2021/06/24 00:52:07;;;;;;;2.50;1.47;;;11.50;99.90;;;;;;5014934;28;20273;-83
2021/06/24 00:54:33;;;;;;;4.20;2.17;;;11.60;99.90;;;;;;5017781;28;20219;-83
2021/06/24 00:56:59;;;;;;;2.27;1.97;;;11.60;99.90;;;;;;5017389;28;20223;-84
2021/06/24 00:59:25;;;;;;;4.10;1.87;;;11.60;99.90;;;;;;4999840;28;20231;-83
2021/06/24 01:01:51;;;;;;;2.07;1.87;;;11.70;99.90;;;;;;5011624;28;20319;-83
2021/06/24 01:04:21;;;;;;;2.77;2.00;;;11.80;99.90;;;;;;5010603;28;20222;-83
2021/06/24 01:06:52;;;;;;;2.30;2.10;;;11.80;99.90;;;;;;5014648;28;20211;-84
2021/06/24 01:09:18;;;;;;;1.93;1.70;;;11.90;99.90;;;;;;5015789;28;20308;-84
2021/06/24 01:11:44;;;;;;;3.20;1.97;;;11.90;99.90;;;;;;5032043;28;20644;-84
2021/06/24 01:14:10;;;;;;;2.13;1.93;;;12.10;99.90;;;;;;5013604;28;20179;-83
2021/06/24 01:16:40;;;;;;;2.33;2.10;;;12.10;99.90;;;;;;4997993;28;20229;-86
2021/06/24 01:19:07;;;;;;;2.37;2.03;;;12.20;99.90;;;;;;5030699;28;20227;-85
2021/06/24 01:21:33;;;;;;;2.53;2.33;;;12.30;99.90;;;;;;5013977;28;20229;-84
2021/06/24 01:23:59;;;;;;;2.70;2.50;;;12.30;99.90;;;;;;5012433;28;20828;-85
2021/06/24 01:26:26;;;;;;;1.80;1.70;;;12.30;99.90;;;;;;5005731;28;20197;-86
2021/06/24 01:28:52;;;;;;;2.33;2.13;;;12.40;99.90;;;;;;5031136;28;20240;-84
2021/06/24 01:31:20;;;;;;;4.53;2.87;;;12.40;99.90;;;;;;5029467;28;20223;-84
2021/06/24 01:33:46;;;;;;;5.27;2.67;;;12.40;99.90;;;;;;5012381;28;20703;-87
2021/06/24 01:36:13;;;;;;;3.43;2.77;;;12.40;99.90;;;;;;5011248;28;20219;-86
2021/06/24 01:38:43;;;;;;;3.50;2.40;;;12.40;99.90;;;;;;5029623;28;20227;-84
2021/06/24 01:41:14;;;;;;;4.07;2.50;;;12.40;99.90;;;;;;5030393;28;20883;-83
2021/06/24 01:43:41;;;;;;;4.20;3.20;;;12.40;99.90;;;;;;5014532;28;20251;-85
2021/06/24 01:46:07;;;;;;;5.00;2.63;;;12.40;99.90;;;;;;5013281;28;20227;-86
2021/06/24 01:48:32;;;;;;;4.53;2.40;;;12.40;99.90;;;;;;5012439;28;20222;-85
2021/06/24 01:51:00;;;;;;;3.60;2.93;;;12.50;99.90;;;;;;5013075;28;20229;-85
2021/06/24 01:53:27;;;;;;;4.23;2.97;;;12.50;99.90;;;;;;4995903;28;20191;-86
2021/06/24 01:55:53;;;;;;;7.47;3.13;;;12.60;99.90;;;;;;5013986;28;20825;-86
2021/06/24 01:58:24;;;;;;;2.90;2.30;;;12.60;99.90;;;;;;5013314;28;20255;-85
2021/06/24 02:00:59;;;;;;;2.73;2.37;;;12.60;99.90;;;;;;5013711;28;20667;-85
2021/06/24 02:03:25;;;;;;;3.77;2.53;;;12.70;99.90;;;;;;5013263;28;20313;-85
2021/06/24 02:05:54;;;;;;;3.67;3.17;;;12.60;99.90;;;;;;4978580;28;20218;-85
2021/06/24 02:08:25;;;;;;;3.43;2.37;;;12.70;99.90;;;;;;5030467;28;20183;-85
2021/06/24 02:10:55;;;;;;;7.53;2.03;;;12.70;99.90;;;;;;5030066;28;20226;-83
2021/06/24 02:13:21;;;;;;;2.53;2.20;;;12.70;99.90;;;;;;5013818;28;20219;-85
2021/06/24 02:15:46;;;;;;;3.30;2.80;;;12.80;99.90;;;;;;5010528;28;20302;-84
2021/06/24 02:18:12;;;;;;;3.27;2.00;;;12.80;99.90;;;;;;5028830;28;20219;-84
2021/06/24 02:20:39;;;;;;;2.57;2.37;;;12.80;99.90;;;;;;5015909;28;20206;-85
2021/06/24 02:23:06;;;;;;;2.50;2.27;;;12.80;99.90;;;;;;5014287;28;20314;-85
2021/06/24 02:25:32;;;;;;;2.83;2.23;;;12.90;99.90;;;;;;5029791;28;20250;-84
2021/06/24 02:27:59;;;;;;;3.23;2.27;;;12.80;99.90;;;;;;4997895;28;20301;-84
2021/06/24 02:30:25;;;;;;;2.83;2.60;;;12.80;99.90;;;;;;4997789;28;20249;-85
2021/06/24 02:32:52;;;;;;;3.93;2.60;;;12.80;99.90;;;;;;4994526;28;21111;-84
2021/06/24 02:35:19;;;;;;;3.50;3.17;;;12.80;99.90;;;;;;5029050;28;21152;-85
2021/06/24 02:37:46;;;;;;;5.90;3.40;;;12.80;99.90;;;;;;5012446;28;20215;-85
2021/06/24 02:40:14;;;;;;;4.07;2.93;;;12.80;99.90;;;;;;5011530;28;20297;-86
2021/06/24 02:42:40;;;;;;;5.37;2.90;;;12.80;99.90;;;;;;5011236;28;20595;-87
2021/06/24 02:45:08;;;;;;;4.73;2.93;;;12.90;99.90;;;;;;5012642;28;20227;-85
2021/06/24 02:47:34;;;;;;;3.97;2.40;;;12.90;99.90;;;;;;5012929;28;20191;-86
2021/06/24 02:50:00;;;;;;;2.73;2.37;;;13.00;99.90;;;;;;5014083;28;20278;-86
2021/06/24 02:52:25;;;;;;;6.97;3.27;;;13.00;99.90;;;;;;5014765;28;20743;-88
2021/06/24 02:54:52;;;;;;;3.77;2.47;;;13.00;99.90;;;;;;4995778;28;20208;-84
2021/06/24 02:57:21;;;;;;;3.13;2.00;;;13.00;99.90;;;;;;5029853;28;20679;-85
2021/06/24 02:59:47;;;;;;;2.93;2.63;;;13.00;99.90;;;;;;5009996;28;20239;-85
2021/06/24 03:02:13;;;;;;;3.93;2.63;;;13.10;99.90;;;;;;4995910;28;20967;-86
2021/06/24 03:04:39;;;;;;;6.63;2.67;;;13.10;99.90;;;;;;5012228;28;20226;-86
2021/06/24 03:07:05;;;;;;;6.50;2.70;;;13.10;99.90;;;;;;5010919;28;20207;-84
2021/06/24 03:09:31;;;;;;;1.87;1.73;;;13.10;99.90;;;;;;5028252;28;20211;-84
2021/06/24 03:11:57;;;;;;;1.63;1.53;;;13.00;99.90;;;;;;5027316;28;20281;-85
2021/06/24 03:14:24;;;;;;;1.77;1.63;;;13.00;99.90;;;;;;5013734;28;20197;-86
2021/06/24 03:16:50;;;;;;;1.43;1.33;;;13.00;99.90;;;;;;5013590;28;20237;-86
2021/06/24 03:19:15;;;;;;;5.30;2.17;;;13.00;99.90;;;;;;5013736;28;20231;-86
2021/06/24 03:21:41;;;;;;;2.47;1.90;;;12.90;99.90;;;;;;4995206;28;20222;-86
2021/06/24 03:24:08;;;;;;;1.73;1.63;;;12.90;99.90;;;;;;4997617;28;20230;-86
2021/06/24 03:26:35;;;;;;;1.97;1.77;;;13.00;99.90;;;;;;5014114;28;20193;-84
2021/06/24 03:29:02;;;;;;;3.10;2.10;;;13.00;99.90;;;;;;5014259;28;20241;-84
2021/06/24 03:31:28;;;;;;;2.83;2.30;;;12.90;99.90;;;;;;5028559;28;20219;-83
2021/06/24 03:33:54;;;;;;;3.70;2.03;;;12.90;99.90;;;;;;5011889;28;20714;-84
2021/06/24 03:36:20;;;;;;;2.07;1.87;;;13.00;99.90;;;;;;4993707;28;20720;-85
2021/06/24 03:38:47;;;;;;;3.90;1.47;;;13.00;99.90;;;;;;5012285;28;20747;-85
2021/06/24 03:41:15;;;;;;;1.70;1.60;;;13.00;99.90;;;;;;5018158;28;20183;-85
2021/06/24 03:43:42;;;;;;;2.53;1.57;;;12.90;99.90;;;;;;4996811;28;20250;-84
2021/06/24 03:46:09;;;;;;;2.60;1.60;;;12.90;99.90;;;;;;5009725;28;20253;-84
2021/06/24 03:48:35;;;;;;;2.70;1.70;;;13.00;99.90;;;;;;5029495;28;20259;-85
2021/06/24 03:51:01;;;;;;;2.63;1.90;;;13.10;99.90;;;;;;5028419;28;20223;-84
2021/06/24 03:53:27;;;;;;;2.83;1.70;;;13.20;99.90;;;;;;4996349;28;20191;-84
2021/06/24 03:55:53;;;;;;;1.33;1.23;;;13.20;99.90;;;;;;5014601;28;20296;-84
2021/06/24 03:58:19;;;;;;;1.43;1.33;;;13.30;99.90;;;;;;4994610;28;20222;-85
2021/06/24 04:00:47;;;;;;;2.17;1.97;;;13.30;99.90;;;;;;5014772;28;21045;-85
2021/06/24 04:03:15;;;;;;;1.60;1.50;;;13.20;99.90;;;;;;5009525;28;20254;-85
2021/06/24 04:05:41;;;;;;;2.20;1.47;;;13.20;99.90;;;;;;5027032;28;20719;-83
2021/06/24 04:08:08;;;;;;;2.73;1.60;;;13.30;99.90;;;;;;5009545;28;20190;-84
2021/06/24 04:10:35;;;;;;;2.90;1.37;;;13.40;99.90;;;;;;5009826;28;20230;-85
2021/06/24 04:13:01;;;;;;;1.43;1.23;;;13.30;99.90;;;;;;5012116;28;20223;-84
2021/06/24 04:15:29;;;;;;;3.47;1.60;;;13.30;99.90;;;;;;5011691;28;20230;-83
2021/06/24 04:17:55;;;;;;;2.40;1.57;;;13.30;99.90;;;;;;5012534;28;20227;-84
2021/06/24 04:20:22;;;;;;;1.67;1.57;;;13.40;99.90;;;;;;5011652;28;20230;-85
2021/06/24 04:22:48;;;;;;;2.57;1.07;;;13.40;99.90;;;;;;5011209;28;20228;-87
2021/06/24 04:25:16;;;;;;;5.13;2.17;;;13.40;99.90;;;;;;5011243;28;20303;-88
2021/06/24 04:27:43;;;;;;;3.67;1.90;;;13.50;99.90;;;;;;5026584;28;20584;-87
2021/06/24 04:30:09;;;;;;;2.73;2.53;;;13.60;99.90;;;;;;5028127;28;20231;-87
2021/06/24 04:32:36;;;;;;;1.93;1.70;;;13.60;99.90;;;;;;5011229;28;20272;-89
2021/06/24 04:35:02;;;;;;;1.70;1.60;;;13.70;99.90;;;;;;5011181;28;20699;-89
2021/06/24 04:37:28;;;;;;;1.97;1.63;;;13.80;99.90;;;;;;4994916;28;20690;-89
2021/06/24 04:39:53;;;;;;;2.07;1.67;;;13.80;99.90;;;;;;4993019;28;20257;-89
2021/06/24 04:42:19;;;;;;;6.63;2.37;;;13.90;99.90;;;;;;5011625;28;20309;-89
2021/06/24 04:44:45;;;;;;;2.23;2.03;;;13.90;99.90;;;;;;5028021;28;20634;-86
2021/06/24 04:47:11;;;;;;;2.00;1.67;;;13.90;99.90;;;;;;5027410;28;20198;-88
2021/06/24 04:49:36;;;;;;;2.13;1.50;;;14.00;99.90;;;;;;5026612;28;20222;-87
2021/06/24 04:52:03;;;;;;;2.30;1.67;;;14.10;99.90;;;;;;4995486;28;20223;-87
2021/06/24 04:54:29;;;;;;;2.17;1.63;;;14.10;99.90;;;;;;5025490;28;20218;-88
2021/06/24 04:56:54;;;;;;;1.97;1.57;;;13.90;99.90;;;;;;5011322;28;20222;-89
2021/06/24 04:59:20;;;;;;;1.63;1.50;;;13.80;99.90;;;;;;5028791;28;20680;-88
2021/06/24 05:01:46;;;;;;;1.60;1.50;;;13.80;99.90;;;;;;4993699;28;20222;-88
2021/06/24 05:04:11;;;;;;;1.60;1.50;;;13.80;99.90;;;;;;5012584;28;20211;-87
2021/06/24 05:06:38;;;;;;;2.17;1.60;;;13.70;99.90;;;;;;4981151;28;20313;-87
2021/06/24 05:09:05;;;;;;;2.80;1.80;;;13.70;99.90;;;;;;5014139;28;20241;-89
2021/06/24 05:11:31;;;;;;;1.47;1.37;;;13.80;99.90;;;;;;5012301;28;20190;-87
2021/06/24 05:13:57;;;;;;;5.20;1.90;;;13.70;99.90;;;;;;5015583;28;20192;-85
2021/06/24 05:16:23;;;;;;;4.17;1.40;;;13.80;99.90;;;;;;4997518;28;20719;-85
2021/06/24 05:18:49;;;;;;;1.83;1.67;;;13.80;99.90;;;;;;4995480;28;20233;-86
2021/06/24 05:21:15;;;;;;;5.77;2.10;;;14.00;99.90;;;;;;4998115;28;20364;-86
2021/06/24 05:23:43;;;;;;;1.43;1.33;;;14.10;99.90;;;;;;5012117;28;20199;-88
2021/06/24 05:26:09;;;;;;;1.70;1.60;;;14.30;99.90;;;;;;5012878;28;20187;-86
2021/06/24 05:28:35;;;;;;;1.30;1.20;;;14.40;99.90;;;;;;5011735;28;20218;-84
2021/06/24 05:31:02;;;;;;;2.33;1.87;;;14.40;99.90;;;;;;4994692;28;20219;-85
2021/06/24 05:33:28;;;;;;;2.07;1.60;;;14.60;99.90;;;;;;5010534;28;20254;-84
2021/06/24 05:35:53;;;;;;;1.67;1.27;;;14.80;99.90;;;;;;5014398;28;20314;-85
2021/06/24 05:38:19;;;;;;;1.50;1.20;;;14.80;99.90;;;;;;5013398;28;20196;-86
2021/06/24 05:40:50;;;;;;;2.07;1.50;;;14.70;99.90;;;;;;4992866;28;20302;-86
2021/06/24 05:43:16;;;;;;;2.37;1.43;;;14.60;99.90;;;;;;5026958;28;20231;-85
2021/06/24 05:45:42;;;;;;;2.23;2.00;;;14.80;99.90;;;;;;5015442;28;20235;-84
2021/06/24 05:48:08;;;;;;;1.20;1.13;;;14.70;99.90;;;;;;5010678;28;20600;-85
2021/06/24 05:50:34;;;;;;;2.10;1.47;;;14.80;99.90;;;;;;4996644;28;20561;-85
2021/06/24 05:53:00;;;;;;;1.10;1.00;;;15.00;99.90;;;;;;5028668;28;20202;-87
2021/06/24 05:58:12;;;;;;;1.60;1.50;;;15.50;99.90;;;;;;5012875;28;20207;-86
2021/06/24 06:00:39;;;;;;;1.33;1.23;;;15.80;99.90;;;;;;5012976;28;20241;-85
2021/06/24 06:03:05;;;;;;;4.23;1.07;;;16.20;99.90;;;;;;5013561;28;20214;-87
2021/06/24 06:05:32;;;;;;;1.37;1.27;;;16.60;99.90;;;;;;5014091;28;20187;-87
2021/06/24 06:07:59;;;;;;;1.93;1.17;;;17.10;99.90;;;;;;5010371;28;20835;-84
2021/06/24 06:10:26;;;;;;;2.07;1.30;;;19.90;99.90;;;;;;5014217;28;20346;-90
2021/06/24 06:12:52;;;;;;;5.20;1.50;;;24.10;99.90;;;;;;5015796;28;21184;-84
2021/06/24 06:15:17;;;;;;;1.00;0.90;;;27.20;99.90;;;;;;4994727;28;20222;-87
2021/06/24 06:17:43;;;;;;;3.23;1.33;;;28.50;99.90;;;;;;5015248;28;20550;-84
2021/06/24 06:20:10;;;;;;;2.40;1.20;;;29.70;97.60;;;;;;5012768;28;20562;-85
2021/06/24 06:22:35;;;;;;;1.10;1.10;;;28.60;96.80;;;;;;5026024;28;20638;-85
2021/06/24 06:25:01;;;;;;;1.60;1.00;;;27.70;97.90;;;;;;5027317;28;20223;-86
2021/06/24 06:27:27;;;;;;;1.10;1.00;;;28.20;97.50;;;;;;5028834;28;20280;-90
2021/06/24 06:29:53;;;;;;;1.48;0.95;;;29.60;97.60;;;;;;5011567;28;20227;-81
2021/06/24 06:32:19;;;;;;;0.90;0.88;;;30.80;94.80;;;;;;4987023;28;20192;-89
2021/06/24 06:34:45;;;;;;;1.02;0.90;;;30.30;93.00;;;;;;5010118;28;20677;-85
2021/06/24 06:37:11;;;;;;;1.00;1.00;;;30.70;92.90;;;;;;5009193;28;20583;-84
2021/06/24 06:39:37;;;;;;;1.63;0.88;;;30.10;92.90;;;;;;5028209;28;20238;-87
2021/06/24 06:42:03;;;;;;;1.80;0.90;;;29.30;92.40;;;;;;5012221;28;20302;-84
2021/06/24 06:44:28;;;;;;;0.82;0.82;;;25.10;96.90;;;;;;5027928;28;20241;-85
2021/06/24 06:46:54;;;;;;;1.23;1.05;;;22.30;99.90;;;;;;4991595;28;20195;-83
2021/06/24 06:49:20;;;;;;;0.80;0.80;;;21.30;99.90;;;;;;5010874;28;20215;-86
2021/06/24 06:51:46;;;;;;;1.15;1.05;;;20.50;99.90;;;;;;5011375;28;20217;-83
2021/06/24 06:54:11;;;;;;;1.57;1.20;;;19.80;99.90;;;;;;5013046;28;20685;-82
2021/06/24 06:56:38;;;;;;;1.73;0.90;;;19.50;99.90;;;;;;5011696;28;20698;-84
2021/06/24 06:59:06;;;;;;;2.30;1.13;;;19.00;99.90;;;;;;5012792;28;20215;-84
2021/06/24 07:01:32;;;;;;;0.90;0.90;;;18.70;99.90;;;;;;5010346;28;20700;-84
2021/06/24 07:03:57;;;;;;;1.03;0.97;;;18.40;99.90;;;;;;4992011;28;20214;-89
2021/06/24 07:06:25;;;;;;;1.67;1.30;;;18.60;99.90;;;;;;4995120;28;20670;-83
2021/06/24 07:08:51;;;;;;;1.10;1.00;;;18.50;99.90;;;;;;5011254;28;20219;-84
2021/06/24 07:11:17;;;;;;;1.40;1.30;;;18.30;99.90;;;;;;4993626;28;20294;-86
2021/06/24 07:13:43;;;;;;;1.30;1.20;;;17.60;99.90;;;;;;5013615;28;20303;-82
2021/06/24 07:16:09;;;;;;;2.60;1.20;;;17.50;99.90;;;;;;4994288;28;20254;-81
2021/06/24 07:18:35;;;;;;;2.63;1.00;;;17.40;99.90;;;;;;5026551;28;20230;-87
2021/06/24 07:21:00;;;;;;;1.40;1.10;;;17.50;99.90;;;;;;5011580;28;20233;-86
2021/06/24 07:23:26;;;;;;;0.90;0.90;;;17.40;99.90;;;;;;5029249;28;20647;-88
2021/06/24 07:25:52;;;;;;;1.13;1.00;;;17.20;99.90;;;;;;5013181;28;20284;-85
2021/06/24 07:28:17;;;;;;;1.20;1.10;;;17.50;99.90;;;;;;4993098;28;20580;-87
2021/06/24 07:30:43;;;;;;;2.30;1.30;;;17.60;99.90;;;;;;4994596;28;20302;-84
2021/06/24 07:33:09;;;;;;;1.03;0.90;;;17.30;99.90;;;;;;5011283;28;20253;-84
2021/06/24 07:35:35;;;;;;;1.23;1.00;;;17.50;99.90;;;;;;5011486;28;20214;-86
2021/06/24 07:38:00;;;;;;;3.27;1.00;;;17.50;99.90;;;;;;5011631;28;21184;-87
2021/06/24 07:40:26;;;;;;;1.00;0.90;;;17.30;99.90;;;;;;4995731;28;20242;-88
2021/06/24 07:42:52;;;;;;;3.00;1.10;;;17.20;99.90;;;;;;4993485;28;20749;-86
2021/06/24 07:45:18;;;;;;;1.83;1.13;;;17.30;99.90;;;;;;5010903;28;20219;-85
2021/06/24 07:47:44;;;;;;;6.43;1.73;;;17.40;99.90;;;;;;4996591;28;20576;-85
2021/06/24 07:50:10;;;;;;;1.23;0.93;;;17.50;99.90;;;;;;5011994;28;20187;-83
2021/06/24 07:52:36;;;;;;;1.20;1.10;;;17.40;99.90;;;;;;5011210;28;20284;-86
2021/06/24 07:55:03;;;;;;;1.20;1.10;;;17.00;99.90;;;;;;5008820;28;20557;-84
2021/06/24 07:57:29;;;;;;;1.80;1.20;;;17.40;99.90;;;;;;5012404;28;20689;-85
2021/06/24 07:59:56;;;;;;;0.90;0.90;;;17.20;99.90;;;;;;5012612;28;20234;-85
2021/06/24 08:02:22;;;;;;;1.20;1.10;;;17.10;99.90;;;;;;5025532;28;20198;-87
2021/06/24 08:04:47;;;;;;;2.70;1.03;;;17.50;99.90;;;;;;5009990;28;20218;-88
2021/06/24 08:07:13;;;;;;;1.23;1.00;;;17.80;99.90;;;;;;4993605;28;20235;-87
2021/06/24 08:09:39;;;;;;;1.13;0.90;;;17.80;99.90;;;;;;5010807;28;20238;-85
2021/06/24 08:12:05;;;;;;;1.00;1.00;;;17.80;99.90;;;;;;5009704;28;20218;-86
2021/06/24 08:14:31;;;;;;;1.10;1.00;;;18.30;99.90;;;;;;5026309;28;20221;-85
2021/06/24 08:16:56;;;;;;;1.53;0.80;;;18.40;99.90;;;;;;4994360;28;20223;-91
2021/06/24 08:19:22;;;;;;;2.57;0.70;;;17.90;99.90;;;;;;4994089;28;20242;-86
2021/06/24 08:21:48;;;;;;;4.83;0.90;;;18.20;99.90;;;;;;4994008;28;21165;-90
2021/06/24 08:24:14;;;;;;;2.00;1.00;;;17.50;99.90;;;;;;5012304;28;20238;-85
2021/06/24 08:26:40;;;;;;;0.90;0.80;;;17.90;99.90;;;;;;5013295;28;20206;-84
2021/06/24 08:29:06;;;;;;;1.30;0.87;;;18.20;99.90;;;;;;4994709;28;20191;-82
2021/06/24 08:31:32;;;;;;;0.80;0.80;;;18.60;99.90;;;;;;4994354;28;20560;-81
2021/06/24 08:33:59;;;;;;;0.80;0.80;;;19.10;99.90;;;;;;5013993;28;20214;-87
2021/06/24 08:36:25;;;;;;;0.87;0.87;;;19.70;99.90;;;;;;5014961;28;20226;-83
2021/06/24 08:38:51;;;;;;;1.00;1.00;;;19.80;99.90;;;;;;5011763;28;20223;-89
2021/06/24 08:41:19;;;;;;;0.80;0.80;;;20.30;99.90;;;;;;5016578;28;20208;-87
2021/06/24 08:43:44;;;;;;;8.50;1.20;;;20.40;99.90;;;;;;5017097;28;20340;-89
2021/06/24 08:46:12;;;;;;;2.97;1.70;;;20.30;99.90;;;;;;5013535;28;20648;-85
2021/06/24 08:48:38;;;;;;;1.73;0.97;;;20.40;99.90;;;;;;5029376;28;21104;-89
2021/06/24 08:51:05;;;;;;;1.83;1.30;;;20.00;99.90;;;;;;5013778;28;20227;-90
2021/06/24 08:53:32;;;;;;;1.10;1.00;;;20.60;99.90;;;;;;4980605;28;20314;-85
2021/06/24 08:55:58;;;;;;;0.90;0.90;;;20.40;99.90;;;;;;5015267;28;20530;-86
2021/06/24 08:58:24;;;;;;;2.03;0.90;;;19.70;99.90;;;;;;5029436;28;20222;-83
2021/06/24 09:00:51;;;;;;;2.03;1.13;;;19.70;99.90;;;;;;5014612;28;20241;-87
2021/06/24 09:03:28;;;;;;;0.90;0.90;;;19.80;99.90;;;;;;5028931;28;20214;-86
2021/06/24 09:06:04;;;;;;;1.20;1.10;;;19.10;99.90;;;;;;5029374;28;20227;-86
2021/06/24 09:08:39;;;;;;;1.10;1.00;;;18.90;99.90;;;;;;5014780;28;20190;-85
2021/06/24 09:11:22;;;;;;;0.87;0.87;;;18.70;99.90;;;;;;5009316;28;20186;-85
2021/06/24 09:14:11;;;;;;;1.43;1.07;;;18.00;99.90;;;;;;5013793;28;20242;-87
2021/06/24 09:16:41;;;;;;;1.47;1.03;;;19.00;99.90;;;;;;5013555;28;20242;-86
2021/06/24 09:19:22;;;;;;;1.03;1.00;;;19.20;99.90;;;;;;5029407;28;20257;-85
2021/06/24 09:22:02;;;;;;;0.80;0.80;;;19.00;99.90;;;;;;5013967;28;20267;-85
2021/06/24 09:24:29;;;;;;;1.73;0.90;;;19.60;99.90;;;;;;5012779;28;20261;-86
2021/06/24 09:26:57;;;;;;;0.87;0.87;;;19.30;99.90;;;;;;5012462;28;20246;-83
2021/06/24 09:29:23;;;;;;;1.00;1.00;;;19.10;99.90;;;;;;4998377;28;20239;-84
2021/06/24 09:31:52;;;;;;;1.07;1.07;;;19.40;99.90;;;;;;5012405;28;20307;-86
2021/06/24 09:34:19;;;;;;;1.50;0.90;;;19.30;99.90;;;;;;5026209;28;20219;-83
2021/06/24 09:36:48;;;;;;;3.33;1.00;;;19.30;99.90;;;;;;5013969;28;21198;-85
2021/06/24 09:39:36;;;;;;;2.63;1.20;;;19.70;99.90;;;;;;5010519;28;20245;-86
2021/06/24 09:42:02;;;;;;;1.83;0.80;;;19.40;99.90;;;;;;5013319;28;20238;-84
2021/06/24 09:44:29;;;;;;;0.90;0.90;;;19.40;99.90;;;;;;5013483;28;20594;-87
2021/06/24 09:46:56;;;;;;;1.07;1.07;;;19.60;99.90;;;;;;5015814;28;20315;-84
2021/06/24 09:49:27;;;;;;;1.30;1.20;;;19.70;99.90;;;;;;5011929;28;20223;-83
2021/06/24 09:51:54;;;;;;;1.10;1.10;;;20.40;99.90;;;;;;5012413;28;20246;-84
2021/06/24 09:54:28;;;;;;;1.30;1.20;;;21.30;99.90;;;;;;5011553;28;20227;-85
2021/06/24 09:56:55;;;;;;;0.80;0.80;;;22.30;99.90;;;;;;4996986;28;20313;-86
2021/06/24 09:59:33;;;;;;;2.97;1.20;;;23.20;99.90;;;;;;5012921;28;21423;-84
2021/06/24 10:02:06;;;;;;;1.20;1.10;;;22.60;99.90;;;;;;5012515;28;20215;-83
2021/06/24 10:04:32;;;;;;;1.20;1.20;;;20.80;99.90;;;;;;5012370;28;20729;-85
2021/06/24 10:07:00;;;;;;;1.03;1.00;;;20.20;99.90;;;;;;5012420;28;20218;-85
2021/06/24 10:09:28;;;;;;;2.07;1.30;;;20.50;99.90;;;;;;5010619;28;20219;-85
2021/06/24 10:11:55;;;;;;;2.47;1.47;;;20.90;99.90;;;;;;5027391;28;20233;-84
2021/06/24 10:14:21;;;;;;;5.17;1.70;;;20.00;99.90;;;;;;5014185;28;20643;-84
2021/06/24 10:16:52;;;;;;;1.00;1.00;;;20.50;99.90;;;;;;5014228;28;20210;-85
2021/06/24 10:19:36;;;;;;;1.90;1.17;;;21.70;99.90;;;;;;5026439;28;20285;-83
2021/06/24 10:22:19;;;;;;;1.50;1.40;;;23.90;99.90;;;;;;5010405;28;20723;-84
2021/06/24 10:25:07;;;;;;;1.30;1.20;;;25.20;99.90;;;;;;5011269;28;20212;-85
2021/06/24 10:27:34;;;;;;;3.10;1.50;;;24.00;99.90;;;;;;5007548;28;20937;-84
2021/06/24 10:30:14;;;;;;;1.85;1.40;;;22.90;99.90;;;;;;5009193;28;20226;-87
2021/06/24 10:32:56;;;;;;;1.20;1.10;;;22.70;99.90;;;;;;5008092;28;20202;-84
2021/06/24 10:35:33;;;;;;;2.05;1.50;;;23.10;99.90;;;;;;5013292;28;20182;-86
2021/06/24 10:37:59;;;;;;;1.70;1.38;;;22.20;99.90;;;;;;5011997;28;20767;-87
2021/06/24 10:40:33;;;;;;;1.20;1.10;;;20.80;99.90;;;;;;5012485;28;20262;-84
2021/06/24 10:43:02;;;;;;;1.40;1.30;;;20.20;99.90;;;;;;5012565;28;20547;-84
2021/06/24 10:45:29;;;;;;;0.80;0.80;;;19.30;99.90;;;;;;5009677;28;20529;-84
2021/06/24 10:47:56;;;;;;;1.40;1.30;;;18.70;99.90;;;;;;5011100;28;20281;-85
2021/06/24 10:50:29;;;;;;;1.87;1.10;;;19.40;99.90;;;;;;5010267;28;20200;-84
2021/06/24 10:53:09;;;;;;;1.67;1.57;;;20.00;99.90;;;;;;5011930;28;20246;-85
2021/06/24 10:55:46;;;;;;;0.90;0.90;;;21.70;99.90;;;;;;5007411;28;20226;-85
2021/06/24 10:58:18;;;;;;;2.50;1.10;;;22.00;99.90;;;;;;5011191;28;20222;-86
2021/06/24 11:00:49;;;;;;;1.70;0.93;;;21.30;99.90;;;;;;5010461;28;20317;-86
2021/06/24 11:03:17;;;;;;;0.97;0.97;;;20.70;99.90;;;;;;5024976;28;20231;-85
2021/06/24 11:05:49;;;;;;;0.93;0.90;;;21.00;99.90;;;;;;5012018;28;20296;-85
2021/06/24 11:08:20;;;;;;;1.10;1.00;;;21.00;99.90;;;;;;5010909;28;20187;-87
2021/06/24 11:10:57;;;;;;;1.93;1.43;;;21.30;99.90;;;;;;5004984;28;20326;-85
2021/06/24 11:13:44;;;;;;;1.40;1.30;;;20.20;99.90;;;;;;5008587;28;20526;-87
2021/06/24 11:16:10;;;;;;;1.50;1.37;;;19.80;99.90;;;;;;5005857;28;20230;-85
2021/06/24 11:18:36;;;;;;;2.67;1.23;;;19.60;99.90;;;;;;5008276;28;20215;-85
2021/06/24 11:21:01;;;;;;;1.27;1.17;;;19.90;99.90;;;;;;5007257;28;20311;-86
2021/06/24 11:23:29;;;;;;;1.60;1.50;;;20.80;99.90;;;;;;5008873;28;20227;-82
2021/06/24 11:26:03;;;;;;;1.87;1.67;;;21.20;99.90;;;;;;5006737;28;20191;-85
2021/06/24 11:28:43;;;;;;;2.13;1.93;;;21.30;99.90;;;;;;5008533;28;20393;-85
2021/06/24 11:31:11;;;;;;;1.47;1.37;;;21.60;99.90;;;;;;5010379;28;20284;-82
2021/06/24 11:33:44;;;;;;;1.60;1.50;;;21.80;99.90;;;;;;4990113;28;20754;-85
2021/06/24 11:36:15;;;;;;;2.53;1.67;;;21.60;99.90;;;;;;5010100;28;21131;-84
2021/06/24 11:38:48;;;;;;;2.30;2.10;;;21.30;99.90;;;;;;4990232;28;20298;-84
2021/06/24 11:41:19;;;;;;;2.27;1.30;;;21.30;99.90;;;;;;5024954;28;20218;-83
2021/06/24 11:44:06;;;;;;;1.47;1.37;;;21.30;99.90;;;;;;5027143;28;20243;-86
2021/06/24 11:46:36;;;;;;;1.40;1.10;;;20.70;99.90;;;;;;5025119;28;20292;-84
2021/06/24 12:05:09;;;;;;;2.63;2.43;;;19.30;99.90;;;;;;5011991;28;20191;-84
2021/06/24 12:07:36;;;;;;;4.00;1.80;;;19.60;99.90;;;;;;5011411;28;20335;-83
2021/06/24 12:10:04;;;;;;;2.10;1.90;;;20.00;99.90;;;;;;5012779;28;20242;-83
2021/06/24 12:12:32;;;;;;;2.40;1.83;;;20.10;99.90;;;;;;4996329;28;20227;-85
2021/06/24 12:15:02;;;;;;;1.63;1.23;;;20.30;99.90;;;;;;5013423;28;20227;-83
2021/06/24 12:17:38;;;;;;;1.07;1.07;;;20.50;99.90;;;;;;5027240;28;20183;-82
2021/06/24 12:20:04;;;;;;;1.50;1.40;;;20.50;99.90;;;;;;5012649;28;21279;-83
2021/06/24 12:22:39;;;;;;;1.33;1.20;;;20.30;99.90;;;;;;5013715;28;20218;-83
2021/06/24 12:25:14;;;;;;;1.17;1.00;;;19.80;99.90;;;;;;5013481;28;20214;-81
2021/06/24 12:27:48;;;;;;;1.40;1.30;;;19.50;99.90;;;;;;5014076;28;20531;-83
2021/06/24 12:30:14;;;;;;;1.63;1.23;;;19.70;99.90;;;;;;5011180;28;20223;-85
2021/06/24 12:32:46;;;;;;;1.57;1.00;;;19.40;99.90;;;;;;5012500;28;20258;-84
2021/06/24 12:35:12;;;;;;;2.63;1.30;;;19.70;99.90;;;;;;5013819;28;21335;-87
2021/06/24 12:37:43;;;;;;;2.10;1.40;;;20.00;99.90;;;;;;5030715;28;20218;-88
2021/06/24 12:40:14;;;;;;;1.27;1.17;;;20.20;99.90;;;;;;5000388;28;20229;-85
2021/06/24 12:42:53;;;;;;;1.10;0.97;;;20.10;99.90;;;;;;5012550;28;20276;-87
2021/06/24 12:45:27;;;;;;;1.03;1.03;;;19.90;99.90;;;;;;5014083;28;20219;-87
2021/06/24 12:47:55;;;;;;;1.30;1.20;;;20.00;99.90;;;;;;5013168;28;20226;-85
2021/06/24 12:50:22;;;;;;;1.43;1.23;;;20.20;99.90;;;;;;5011815;28;20213;-84
2021/06/24 12:52:57;;;;;;;1.50;1.40;;;20.40;99.90;;;;;;5014385;28;20238;-88
2021/06/24 12:55:39;;;;;;;1.20;1.10;;;20.10;99.90;;;;;;5010468;28;20574;-83
2021/06/24 12:58:05;;;;;;;1.83;1.70;;;20.00;99.90;;;;;;5014987;28;20211;-84
2021/06/24 13:00:31;;;;;;;1.97;1.40;;;20.30;99.90;;;;;;5013599;28;20382;-83
2021/06/24 13:02:57;;;;;;;1.97;1.30;;;20.40;99.90;;;;;;5029237;28;20720;-84
2021/06/24 13:05:24;;;;;;;1.87;1.10;;;20.20;99.90;;;;;;5014478;28;20643;-83
2021/06/24 13:07:57;;;;;;;1.57;1.00;;;20.40;99.90;;;;;;5011818;28;20542;-84
2021/06/24 13:10:23;;;;;;;1.20;1.10;;;20.40;99.90;;;;;;5013891;28;20521;-84